sensor_id;sensor_type;location;lat;lon;timestamp;P1;durP1;ratioP1;P2;durP2;ratioP2
81672;SDS011;71092;41.158;-8.680;2023-12-28T00:02:22;21.23;;;8.18;;
81672;SDS011;71092;41.158;-8.680;2023-12-28T00:07:14;18.85;;;7.25;;
81672;SDS011;71092;41.158;-8.680;2023-12-28T00:09:40;15.60;;;6.90;;
81672;SDS011;71092;41.158;-8.680;2023-12-28T00:12:06;16.10;;;6.65;;
81672;SDS011;71092;41.158;-8.680;2023-12-28T00:16:57;19.42;;;7.55;;
81672;SDS011;71092;41.158;-8.680;2023-12-28T00:21:49;15.10;;;7.35;;
81672;SDS011;71092;41.158;-8.680;2023-12-28T00:24:15;16.55;;;6.40;;
81672;SDS011;71092;41.158;-8.680;2023-12-28T00:26:41;18.73;;;6.70;;
81672;SDS011;71092;41.158;-8.680;2023-12-28T00:29:07;19.20;;;7.30;;
81672;SDS011;71092;41.158;-8.680;2023-12-28T00:31:34;14.73;;;5.95;;
81672;SDS011;71092;41.158;-8.680;2023-12-28T00:36:25;17.13;;;7.05;;
81672;SDS011;71092;41.158;-8.680;2023-12-28T00:38:52;14.77;;;6.65;;
81672;SDS011;71092;41.158;-8.680;2023-12-28T00:41:18;15.68;;;6.05;;
81672;SDS011;71092;41.158;-8.680;2023-12-28T00:46:09;18.75;;;6.47;;
81672;SDS011;71092;41.158;-8.680;2023-12-28T00:48:36;18.35;;;7.85;;
81672;SDS011;71092;41.158;-8.680;2023-12-28T00:53:28;12.80;;;6.90;;
81672;SDS011;71092;41.158;-8.680;2023-12-28T00:55:54;18.75;;;7.22;;
81672;SDS011;71092;41.158;-8.680;2023-12-28T00:58:21;13.27;;;6.75;;
81672;SDS011;71092;41.158;-8.680;2023-12-28T01:00:47;18.08;;;6.68;;
81672;SDS011;71092;41.158;-8.680;2023-12-28T01:05:39;14.32;;;5.85;;
81672;SDS011;71092;41.158;-8.680;2023-12-28T01:08:05;15.02;;;7.35;;
81672;SDS011;71092;41.158;-8.680;2023-12-28T01:10:31;13.73;;;5.80;;
81672;SDS011;71092;41.158;-8.680;2023-12-28T01:15:24;14.18;;;5.70;;
81672;SDS011;71092;41.158;-8.680;2023-12-28T01:17:50;14.02;;;5.47;;
81672;SDS011;71092;41.158;-8.680;2023-12-28T01:22:42;18.15;;;6.18;;
81672;SDS011;71092;41.158;-8.680;2023-12-28T01:25:08;11.90;;;6.57;;
81672;SDS011;71092;41.158;-8.680;2023-12-28T01:30:00;19.70;;;7.25;;
81672;SDS011;71092;41.158;-8.680;2023-12-28T01:32:26;20.63;;;7.55;;
81672;SDS011;71092;41.158;-8.680;2023-12-28T01:34:52;15.48;;;6.82;;
81672;SDS011;71092;41.158;-8.680;2023-12-28T01:39:43;17.10;;;7.18;;
81672;SDS011;71092;41.158;-8.680;2023-12-28T01:44:35;12.82;;;5.72;;
81672;SDS011;71092;41.158;-8.680;2023-12-28T01:47:01;15.23;;;6.65;;
81672;SDS011;71092;41.158;-8.680;2023-12-28T01:51:52;20.92;;;5.53;;
81672;SDS011;71092;41.158;-8.680;2023-12-28T01:54:19;15.32;;;6.85;;
81672;SDS011;71092;41.158;-8.680;2023-12-28T01:56:46;16.92;;;7.30;;
81672;SDS011;71092;41.158;-8.680;2023-12-28T02:01:40;18.52;;;6.53;;
81672;SDS011;71092;41.158;-8.680;2023-12-28T02:04:06;22.50;;;7.80;;
81672;SDS011;71092;41.158;-8.680;2023-12-28T02:06:33;15.93;;;6.70;;
81672;SDS011;71092;41.158;-8.680;2023-12-28T02:08:59;16.83;;;6.57;;
81672;SDS011;71092;41.158;-8.680;2023-12-28T02:13:50;14.85;;;4.88;;
81672;SDS011;71092;41.158;-8.680;2023-12-28T02:18:44;16.52;;;6.28;;
81672;SDS011;71092;41.158;-8.680;2023-12-28T02:21:16;16.20;;;5.35;;
81672;SDS011;71092;41.158;-8.680;2023-12-28T02:23:46;16.02;;;7.15;;
81672;SDS011;71092;41.158;-8.680;2023-12-28T02:26:15;18.73;;;6.28;;
81672;SDS011;71092;41.158;-8.680;2023-12-28T02:28:42;20.85;;;7.30;;
81672;SDS011;71092;41.158;-8.680;2023-12-28T02:31:08;16.25;;;7.10;;
81672;SDS011;71092;41.158;-8.680;2023-12-28T02:33:50;18.52;;;7.43;;
81672;SDS011;71092;41.158;-8.680;2023-12-28T02:36:18;21.42;;;7.07;;
81672;SDS011;71092;41.158;-8.680;2023-12-28T02:38:44;14.70;;;6.72;;
81672;SDS011;71092;41.158;-8.680;2023-12-28T02:41:11;13.10;;;6.18;;
81672;SDS011;71092;41.158;-8.680;2023-12-28T02:46:02;15.65;;;6.88;;
81672;SDS011;71092;41.158;-8.680;2023-12-28T02:48:29;19.50;;;6.80;;
81672;SDS011;71092;41.158;-8.680;2023-12-28T02:50:55;19.02;;;7.25;;
81672;SDS011;71092;41.158;-8.680;2023-12-28T02:55:46;24.98;;;6.65;;
81672;SDS011;71092;41.158;-8.680;2023-12-28T02:58:12;20.33;;;7.45;;
81672;SDS011;71092;41.158;-8.680;2023-12-28T03:03:07;17.08;;;7.20;;
81672;SDS011;71092;41.158;-8.680;2023-12-28T03:05:34;16.75;;;7.05;;
81672;SDS011;71092;41.158;-8.680;2023-12-28T03:08:00;18.33;;;7.50;;
81672;SDS011;71092;41.158;-8.680;2023-12-28T03:12:51;22.08;;;7.47;;
81672;SDS011;71092;41.158;-8.680;2023-12-28T03:17:43;20.60;;;6.72;;
81672;SDS011;71092;41.158;-8.680;2023-12-28T03:22:36;23.02;;;7.65;;
81672;SDS011;71092;41.158;-8.680;2023-12-28T03:27:30;25.58;;;7.82;;
81672;SDS011;71092;41.158;-8.680;2023-12-28T03:29:56;17.83;;;6.75;;
81672;SDS011;71092;41.158;-8.680;2023-12-28T03:34:49;18.00;;;6.57;;
81672;SDS011;71092;41.158;-8.680;2023-12-28T03:39:41;18.08;;;6.60;;
81672;SDS011;71092;41.158;-8.680;2023-12-28T03:44:33;21.25;;;8.65;;
81672;SDS011;71092;41.158;-8.680;2023-12-28T03:49:25;22.60;;;6.78;;
81672;SDS011;71092;41.158;-8.680;2023-12-28T03:51:53;21.48;;;6.88;;
81672;SDS011;71092;41.158;-8.680;2023-12-28T03:56:47;20.40;;;6.97;;
81672;SDS011;71092;41.158;-8.680;2023-12-28T03:59:13;19.52;;;6.13;;
81672;SDS011;71092;41.158;-8.680;2023-12-28T04:01:42;22.35;;;6.30;;
81672;SDS011;71092;41.158;-8.680;2023-12-28T04:04:08;20.88;;;7.43;;
81672;SDS011;71092;41.158;-8.680;2023-12-28T04:06:35;27.58;;;7.90;;
81672;SDS011;71092;41.158;-8.680;2023-12-28T04:09:02;23.40;;;7.28;;
81672;SDS011;71092;41.158;-8.680;2023-12-28T04:11:29;20.83;;;7.22;;
81672;SDS011;71092;41.158;-8.680;2023-12-28T04:13:55;23.33;;;7.45;;
81672;SDS011;71092;41.158;-8.680;2023-12-28T04:16:21;15.95;;;7.18;;
81672;SDS011;71092;41.158;-8.680;2023-12-28T04:18:47;23.55;;;7.85;;
81672;SDS011;71092;41.158;-8.680;2023-12-28T04:23:41;21.77;;;8.00;;
81672;SDS011;71092;41.158;-8.680;2023-12-28T04:26:07;24.77;;;7.43;;
81672;SDS011;71092;41.158;-8.680;2023-12-28T04:28:33;20.35;;;7.70;;
81672;SDS011;71092;41.158;-8.680;2023-12-28T04:31:03;20.35;;;6.80;;
81672;SDS011;71092;41.158;-8.680;2023-12-28T04:33:29;13.85;;;6.57;;
81672;SDS011;71092;41.158;-8.680;2023-12-28T04:35:56;18.83;;;7.38;;
81672;SDS011;71092;41.158;-8.680;2023-12-28T04:38:23;20.90;;;8.07;;
81672;SDS011;71092;41.158;-8.680;2023-12-28T04:43:14;19.25;;;6.93;;
81672;SDS011;71092;41.158;-8.680;2023-12-28T04:45:41;20.42;;;8.10;;
81672;SDS011;71092;41.158;-8.680;2023-12-28T04:48:07;30.02;;;7.35;;
81672;SDS011;71092;41.158;-8.680;2023-12-28T04:50:33;17.70;;;7.38;;
81672;SDS011;71092;41.158;-8.680;2023-12-28T04:55:26;23.27;;;6.97;;
81672;SDS011;71092;41.158;-8.680;2023-12-28T04:57:51;22.88;;;8.65;;
81672;SDS011;71092;41.158;-8.680;2023-12-28T05:00:17;20.20;;;7.00;;
81672;SDS011;71092;41.158;-8.680;2023-12-28T05:02:46;21.15;;;7.28;;
81672;SDS011;71092;41.158;-8.680;2023-12-28T05:05:12;18.90;;;6.70;;
81672;SDS011;71092;41.158;-8.680;2023-12-28T05:07:38;18.48;;;6.93;;
81672;SDS011;71092;41.158;-8.680;2023-12-28T05:10:04;20.92;;;7.72;;
81672;SDS011;71092;41.158;-8.680;2023-12-28T05:12:30;27.65;;;7.50;;
81672;SDS011;71092;41.158;-8.680;2023-12-28T05:14:56;19.40;;;6.32;;
81672;SDS011;71092;41.158;-8.680;2023-12-28T05:19:47;19.52;;;6.32;;
81672;SDS011;71092;41.158;-8.680;2023-12-28T05:24:39;20.67;;;7.03;;
81672;SDS011;71092;41.158;-8.680;2023-12-28T05:29:31;18.80;;;6.28;;
81672;SDS011;71092;41.158;-8.680;2023-12-28T05:31:57;16.05;;;5.75;;
81672;SDS011;71092;41.158;-8.680;2023-12-28T05:34:23;22.88;;;7.45;;
81672;SDS011;71092;41.158;-8.680;2023-12-28T05:36:49;24.13;;;6.43;;
81672;SDS011;71092;41.158;-8.680;2023-12-28T05:39:15;16.50;;;6.55;;
81672;SDS011;71092;41.158;-8.680;2023-12-28T05:41:41;21.65;;;6.43;;
81672;SDS011;71092;41.158;-8.680;2023-12-28T05:46:32;18.63;;;6.43;;
81672;SDS011;71092;41.158;-8.680;2023-12-28T05:51:24;18.10;;;6.85;;
81672;SDS011;71092;41.158;-8.680;2023-12-28T05:56:15;26.48;;;7.45;;
81672;SDS011;71092;41.158;-8.680;2023-12-28T06:01:07;14.18;;;6.95;;
81672;SDS011;71092;41.158;-8.680;2023-12-28T06:05:58;21.75;;;6.72;;
81672;SDS011;71092;41.158;-8.680;2023-12-28T06:10:50;22.42;;;6.57;;
81672;SDS011;71092;41.158;-8.680;2023-12-28T06:13:16;17.90;;;6.90;;
81672;SDS011;71092;41.158;-8.680;2023-12-28T06:18:09;22.40;;;6.63;;
81672;SDS011;71092;41.158;-8.680;2023-12-28T06:23:01;21.25;;;6.88;;
81672;SDS011;71092;41.158;-8.680;2023-12-28T06:25:28;17.55;;;6.28;;
81672;SDS011;71092;41.158;-8.680;2023-12-28T06:30:19;19.13;;;6.85;;
81672;SDS011;71092;41.158;-8.680;2023-12-28T06:32:45;16.15;;;6.63;;
81672;SDS011;71092;41.158;-8.680;2023-12-28T06:35:11;17.30;;;6.88;;
81672;SDS011;71092;41.158;-8.680;2023-12-28T06:37:38;20.88;;;5.95;;
81672;SDS011;71092;41.158;-8.680;2023-12-28T06:42:30;16.13;;;5.70;;
81672;SDS011;71092;41.158;-8.680;2023-12-28T06:44:56;17.70;;;6.75;;
81672;SDS011;71092;41.158;-8.680;2023-12-28T06:49:47;18.05;;;7.32;;
81672;SDS011;71092;41.158;-8.680;2023-12-28T06:54:39;17.17;;;6.63;;
81672;SDS011;71092;41.158;-8.680;2023-12-28T06:57:05;25.05;;;6.70;;
81672;SDS011;71092;41.158;-8.680;2023-12-28T07:01:57;18.73;;;5.88;;
81672;SDS011;71092;41.158;-8.680;2023-12-28T07:04:22;23.15;;;6.63;;
81672;SDS011;71092;41.158;-8.680;2023-12-28T07:06:50;20.80;;;7.43;;
81672;SDS011;71092;41.158;-8.680;2023-12-28T07:11:42;17.92;;;5.78;;
81672;SDS011;71092;41.158;-8.680;2023-12-28T07:16:34;20.08;;;7.65;;
81672;SDS011;71092;41.158;-8.680;2023-12-28T07:21:25;17.13;;;6.45;;
81672;SDS011;71092;41.158;-8.680;2023-12-28T07:23:51;20.15;;;6.47;;
81672;SDS011;71092;41.158;-8.680;2023-12-28T07:28:43;21.23;;;6.90;;
81672;SDS011;71092;41.158;-8.680;2023-12-28T07:31:10;17.45;;;6.20;;
81672;SDS011;71092;41.158;-8.680;2023-12-28T07:36:02;14.50;;;6.38;;
81672;SDS011;71092;41.158;-8.680;2023-12-28T07:38:29;15.93;;;5.95;;
81672;SDS011;71092;41.158;-8.680;2023-12-28T07:43:20;15.20;;;5.95;;
81672;SDS011;71092;41.158;-8.680;2023-12-28T07:45:46;13.63;;;6.05;;
81672;SDS011;71092;41.158;-8.680;2023-12-28T07:50:38;13.98;;;5.47;;
81672;SDS011;71092;41.158;-8.680;2023-12-28T07:55:30;15.18;;;4.65;;
81672;SDS011;71092;41.158;-8.680;2023-12-28T08:00:22;15.50;;;5.63;;
81672;SDS011;71092;41.158;-8.680;2023-12-28T08:02:48;11.82;;;5.07;;
81672;SDS011;71092;41.158;-8.680;2023-12-28T08:07:40;13.02;;;5.00;;
81672;SDS011;71092;41.158;-8.680;2023-12-28T08:10:06;14.60;;;5.15;;
81672;SDS011;71092;41.158;-8.680;2023-12-28T08:12:32;16.20;;;4.88;;
81672;SDS011;71092;41.158;-8.680;2023-12-28T08:14:58;15.68;;;5.00;;
81672;SDS011;71092;41.158;-8.680;2023-12-28T08:17:25;15.10;;;5.03;;
81672;SDS011;71092;41.158;-8.680;2023-12-28T08:22:16;12.82;;;4.40;;
81672;SDS011;71092;41.158;-8.680;2023-12-28T08:24:42;12.85;;;4.30;;
81672;SDS011;71092;41.158;-8.680;2023-12-28T08:27:08;10.38;;;4.53;;
81672;SDS011;71092;41.158;-8.680;2023-12-28T08:31:59;13.18;;;4.50;;
81672;SDS011;71092;41.158;-8.680;2023-12-28T08:34:25;13.52;;;4.50;;
81672;SDS011;71092;41.158;-8.680;2023-12-28T08:36:53;17.58;;;4.25;;
81672;SDS011;71092;41.158;-8.680;2023-12-28T08:39:19;11.32;;;4.13;;
81672;SDS011;71092;41.158;-8.680;2023-12-28T08:44:11;15.85;;;5.05;;
81672;SDS011;71092;41.158;-8.680;2023-12-28T08:46:37;11.38;;;4.38;;
81672;SDS011;71092;41.158;-8.680;2023-12-28T08:49:03;14.13;;;4.25;;
81672;SDS011;71092;41.158;-8.680;2023-12-28T08:51:29;13.23;;;3.40;;
81672;SDS011;71092;41.158;-8.680;2023-12-28T08:53:55;10.18;;;3.97;;
81672;SDS011;71092;41.158;-8.680;2023-12-28T08:56:22;13.80;;;4.82;;
81672;SDS011;71092;41.158;-8.680;2023-12-28T08:58:48;10.80;;;3.58;;
81672;SDS011;71092;41.158;-8.680;2023-12-28T09:01:16;12.63;;;3.45;;
81672;SDS011;71092;41.158;-8.680;2023-12-28T09:03:49;9.05;;;3.70;;
81672;SDS011;71092;41.158;-8.680;2023-12-28T09:06:15;12.73;;;3.72;;
81672;SDS011;71092;41.158;-8.680;2023-12-28T09:08:42;10.68;;;3.67;;
81672;SDS011;71092;41.158;-8.680;2023-12-28T09:11:10;13.45;;;4.03;;
81672;SDS011;71092;41.158;-8.680;2023-12-28T09:13:37;18.40;;;4.28;;
81672;SDS011;71092;41.158;-8.680;2023-12-28T09:16:07;10.32;;;3.72;;
81672;SDS011;71092;41.158;-8.680;2023-12-28T09:18:35;11.32;;;4.00;;
81672;SDS011;71092;41.158;-8.680;2023-12-28T09:21:04;13.90;;;4.68;;
81672;SDS011;71092;41.158;-8.680;2023-12-28T09:23:30;13.35;;;4.85;;
81672;SDS011;71092;41.158;-8.680;2023-12-28T09:25:57;12.60;;;4.07;;
81672;SDS011;71092;41.158;-8.680;2023-12-28T09:28:24;9.95;;;2.85;;
81672;SDS011;71092;41.158;-8.680;2023-12-28T09:30:50;11.45;;;3.15;;
81672;SDS011;71092;41.158;-8.680;2023-12-28T09:33:16;13.50;;;4.72;;
81672;SDS011;71092;41.158;-8.680;2023-12-28T09:35:42;9.20;;;3.13;;
81672;SDS011;71092;41.158;-8.680;2023-12-28T09:38:08;11.30;;;3.92;;
81672;SDS011;71092;41.158;-8.680;2023-12-28T09:40:37;11.60;;;3.47;;
81672;SDS011;71092;41.158;-8.680;2023-12-28T09:43:21;9.93;;;3.63;;
81672;SDS011;71092;41.158;-8.680;2023-12-28T09:45:51;10.02;;;2.95;;
81672;SDS011;71092;41.158;-8.680;2023-12-28T09:48:21;16.10;;;3.67;;
81672;SDS011;71092;41.158;-8.680;2023-12-28T09:50:51;11.50;;;3.60;;
81672;SDS011;71092;41.158;-8.680;2023-12-28T09:55:48;11.45;;;4.43;;
81672;SDS011;71092;41.158;-8.680;2023-12-28T09:58:17;10.48;;;3.45;;
81672;SDS011;71092;41.158;-8.680;2023-12-28T10:00:46;8.48;;;3.83;;
81672;SDS011;71092;41.158;-8.680;2023-12-28T10:03:13;12.82;;;4.43;;
81672;SDS011;71092;41.158;-8.680;2023-12-28T10:05:43;12.07;;;4.43;;
81672;SDS011;71092;41.158;-8.680;2023-12-28T10:08:13;11.38;;;4.20;;
81672;SDS011;71092;41.158;-8.680;2023-12-28T10:10:40;10.77;;;3.72;;
81672;SDS011;71092;41.158;-8.680;2023-12-28T10:13:10;10.00;;;3.13;;
81672;SDS011;71092;41.158;-8.680;2023-12-28T10:15:36;11.35;;;3.63;;
81672;SDS011;71092;41.158;-8.680;2023-12-28T10:18:05;11.23;;;3.55;;
81672;SDS011;71092;41.158;-8.680;2023-12-28T10:20:31;9.23;;;3.65;;
81672;SDS011;71092;41.158;-8.680;2023-12-28T10:22:58;10.93;;;3.35;;
81672;SDS011;71092;41.158;-8.680;2023-12-28T10:25:24;10.02;;;4.15;;
81672;SDS011;71092;41.158;-8.680;2023-12-28T10:27:51;10.70;;;3.13;;
81672;SDS011;71092;41.158;-8.680;2023-12-28T10:30:20;12.77;;;3.95;;
81672;SDS011;71092;41.158;-8.680;2023-12-28T10:32:46;10.40;;;3.95;;
81672;SDS011;71092;41.158;-8.680;2023-12-28T10:35:12;8.00;;;3.10;;
81672;SDS011;71092;41.158;-8.680;2023-12-28T10:37:42;9.18;;;3.75;;
81672;SDS011;71092;41.158;-8.680;2023-12-28T10:40:11;9.70;;;3.03;;
81672;SDS011;71092;41.158;-8.680;2023-12-28T10:42:46;11.50;;;3.50;;
81672;SDS011;71092;41.158;-8.680;2023-12-28T10:45:16;7.93;;;3.17;;
81672;SDS011;71092;41.158;-8.680;2023-12-28T10:47:50;8.13;;;3.20;;
81672;SDS011;71092;41.158;-8.680;2023-12-28T10:50:40;14.57;;;3.63;;
81672;SDS011;71092;41.158;-8.680;2023-12-28T10:53:20;8.50;;;2.63;;
81672;SDS011;71092;41.158;-8.680;2023-12-28T10:58:46;8.70;;;3.15;;
81672;SDS011;71092;41.158;-8.680;2023-12-28T11:01:24;6.68;;;2.83;;
81672;SDS011;71092;41.158;-8.680;2023-12-28T11:03:55;11.43;;;3.10;;
81672;SDS011;71092;41.158;-8.680;2023-12-28T11:06:25;9.63;;;3.47;;
81672;SDS011;71092;41.158;-8.680;2023-12-28T11:08:52;10.95;;;2.80;;
81672;SDS011;71092;41.158;-8.680;2023-12-28T11:11:19;7.22;;;2.70;;
81672;SDS011;71092;41.158;-8.680;2023-12-28T11:13:45;8.52;;;3.00;;
81672;SDS011;71092;41.158;-8.680;2023-12-28T11:16:12;10.27;;;3.97;;
81672;SDS011;71092;41.158;-8.680;2023-12-28T11:18:39;8.95;;;2.58;;
81672;SDS011;71092;41.158;-8.680;2023-12-28T11:21:05;8.98;;;3.17;;
81672;SDS011;71092;41.158;-8.680;2023-12-28T11:23:31;8.20;;;3.03;;
81672;SDS011;71092;41.158;-8.680;2023-12-28T11:25:57;8.20;;;3.00;;
81672;SDS011;71092;41.158;-8.680;2023-12-28T11:28:23;9.57;;;3.88;;
81672;SDS011;71092;41.158;-8.680;2023-12-28T11:30:50;11.48;;;3.72;;
81672;SDS011;71092;41.158;-8.680;2023-12-28T11:33:17;9.10;;;2.72;;
81672;SDS011;71092;41.158;-8.680;2023-12-28T11:35:43;18.27;;;2.70;;
81672;SDS011;71092;41.158;-8.680;2023-12-28T11:38:09;10.45;;;3.38;;
81672;SDS011;71092;41.158;-8.680;2023-12-28T11:40:40;9.27;;;3.25;;
81672;SDS011;71092;41.158;-8.680;2023-12-28T11:43:17;9.02;;;3.42;;
81672;SDS011;71092;41.158;-8.680;2023-12-28T11:45:51;8.23;;;3.13;;
81672;SDS011;71092;41.158;-8.680;2023-12-28T11:50:51;8.93;;;3.00;;
81672;SDS011;71092;41.158;-8.680;2023-12-28T11:55:49;7.95;;;2.95;;
81672;SDS011;71092;41.158;-8.680;2023-12-28T11:58:16;10.57;;;3.10;;
81672;SDS011;71092;41.158;-8.680;2023-12-28T12:00:43;9.75;;;3.72;;
81672;SDS011;71092;41.158;-8.680;2023-12-28T12:03:12;9.75;;;2.97;;
81672;SDS011;71092;41.158;-8.680;2023-12-28T12:05:38;7.60;;;3.13;;
81672;SDS011;71092;41.158;-8.680;2023-12-28T12:08:05;10.85;;;3.22;;
81672;SDS011;71092;41.158;-8.680;2023-12-28T12:10:34;12.00;;;3.17;;
81672;SDS011;71092;41.158;-8.680;2023-12-28T12:13:00;14.32;;;3.40;;
81672;SDS011;71092;41.158;-8.680;2023-12-28T12:15:31;11.00;;;3.22;;
81672;SDS011;71092;41.158;-8.680;2023-12-28T12:17:57;10.77;;;3.65;;
81672;SDS011;71092;41.158;-8.680;2023-12-28T12:20:23;11.40;;;2.95;;
81672;SDS011;71092;41.158;-8.680;2023-12-28T12:22:48;10.52;;;3.38;;
81672;SDS011;71092;41.158;-8.680;2023-12-28T12:25:15;10.90;;;3.95;;
81672;SDS011;71092;41.158;-8.680;2023-12-28T12:27:44;14.93;;;3.38;;
81672;SDS011;71092;41.158;-8.680;2023-12-28T12:30:10;10.15;;;3.40;;
81672;SDS011;71092;41.158;-8.680;2023-12-28T12:32:35;11.05;;;3.35;;
81672;SDS011;71092;41.158;-8.680;2023-12-28T12:37:35;14.60;;;4.15;;
81672;SDS011;71092;41.158;-8.680;2023-12-28T12:40:01;11.88;;;4.25;;
81672;SDS011;71092;41.158;-8.680;2023-12-28T12:42:29;14.82;;;3.53;;
81672;SDS011;71092;41.158;-8.680;2023-12-28T12:44:57;11.77;;;3.20;;
81672;SDS011;71092;41.158;-8.680;2023-12-28T12:47:23;11.18;;;3.40;;
81672;SDS011;71092;41.158;-8.680;2023-12-28T12:49:51;14.73;;;3.40;;
81672;SDS011;71092;41.158;-8.680;2023-12-28T12:52:17;13.18;;;4.18;;
81672;SDS011;71092;41.158;-8.680;2023-12-28T12:54:43;12.82;;;3.80;;
81672;SDS011;71092;41.158;-8.680;2023-12-28T12:57:08;9.75;;;3.75;;
81672;SDS011;71092;41.158;-8.680;2023-12-28T12:59:35;10.80;;;3.65;;
81672;SDS011;71092;41.158;-8.680;2023-12-28T13:02:01;8.85;;;3.50;;
81672;SDS011;71092;41.158;-8.680;2023-12-28T13:04:26;9.68;;;3.75;;
81672;SDS011;71092;41.158;-8.680;2023-12-28T13:06:52;12.52;;;4.03;;
81672;SDS011;71092;41.158;-8.680;2023-12-28T13:09:18;10.63;;;3.38;;
81672;SDS011;71092;41.158;-8.680;2023-12-28T13:11:44;13.02;;;2.88;;
81672;SDS011;71092;41.158;-8.680;2023-12-28T13:14:14;17.10;;;4.03;;
81672;SDS011;71092;41.158;-8.680;2023-12-28T13:16:40;15.50;;;3.88;;
81672;SDS011;71092;41.158;-8.680;2023-12-28T13:19:06;14.48;;;4.22;;
81672;SDS011;71092;41.158;-8.680;2023-12-28T13:21:32;21.88;;;5.03;;
81672;SDS011;71092;41.158;-8.680;2023-12-28T13:23:58;19.05;;;5.28;;
81672;SDS011;71092;41.158;-8.680;2023-12-28T13:26:26;14.13;;;4.82;;
81672;SDS011;71092;41.158;-8.680;2023-12-28T13:28:52;20.13;;;5.28;;
81672;SDS011;71092;41.158;-8.680;2023-12-28T13:31:18;16.45;;;4.72;;
81672;SDS011;71092;41.158;-8.680;2023-12-28T13:33:44;17.50;;;5.22;;
81672;SDS011;71092;41.158;-8.680;2023-12-28T13:36:10;17.33;;;5.03;;
81672;SDS011;71092;41.158;-8.680;2023-12-28T13:38:36;22.88;;;5.60;;
81672;SDS011;71092;41.158;-8.680;2023-12-28T13:41:02;14.75;;;5.15;;
81672;SDS011;71092;41.158;-8.680;2023-12-28T13:43:28;9.60;;;4.43;;
81672;SDS011;71092;41.158;-8.680;2023-12-28T13:45:54;11.93;;;5.18;;
81672;SDS011;71092;41.158;-8.680;2023-12-28T13:48:20;14.90;;;5.68;;
81672;SDS011;71092;41.158;-8.680;2023-12-28T13:50:46;14.13;;;4.35;;
81672;SDS011;71092;41.158;-8.680;2023-12-28T13:53:11;14.75;;;4.03;;
81672;SDS011;71092;41.158;-8.680;2023-12-28T13:55:37;20.02;;;4.88;;
81672;SDS011;71092;41.158;-8.680;2023-12-28T13:58:03;13.35;;;4.93;;
81672;SDS011;71092;41.158;-8.680;2023-12-28T14:00:30;14.43;;;5.25;;
81672;SDS011;71092;41.158;-8.680;2023-12-28T14:02:56;16.75;;;5.25;;
81672;SDS011;71092;41.158;-8.680;2023-12-28T14:05:22;13.27;;;4.70;;
81672;SDS011;71092;41.158;-8.680;2023-12-28T14:07:48;13.75;;;4.78;;
81672;SDS011;71092;41.158;-8.680;2023-12-28T14:10:14;17.17;;;5.78;;
81672;SDS011;71092;41.158;-8.680;2023-12-28T14:12:40;11.35;;;5.88;;
81672;SDS011;71092;41.158;-8.680;2023-12-28T14:15:06;16.08;;;5.60;;
81672;SDS011;71092;41.158;-8.680;2023-12-28T14:17:33;11.60;;;5.20;;
81672;SDS011;71092;41.158;-8.680;2023-12-28T14:19:59;14.70;;;5.70;;
81672;SDS011;71092;41.158;-8.680;2023-12-28T14:22:25;15.85;;;5.68;;
81672;SDS011;71092;41.158;-8.680;2023-12-28T14:24:52;12.65;;;5.85;;
81672;SDS011;71092;41.158;-8.680;2023-12-28T14:27:18;15.75;;;4.80;;
81672;SDS011;71092;41.158;-8.680;2023-12-28T14:29:45;13.95;;;5.30;;
81672;SDS011;71092;41.158;-8.680;2023-12-28T14:32:11;11.88;;;5.25;;
81672;SDS011;71092;41.158;-8.680;2023-12-28T14:34:37;19.10;;;5.85;;
81672;SDS011;71092;41.158;-8.680;2023-12-28T14:37:03;12.38;;;4.97;;
81672;SDS011;71092;41.158;-8.680;2023-12-28T14:39:29;15.50;;;5.20;;
81672;SDS011;71092;41.158;-8.680;2023-12-28T14:41:55;14.88;;;5.03;;
81672;SDS011;71092;41.158;-8.680;2023-12-28T14:44:23;14.95;;;5.45;;
81672;SDS011;71092;41.158;-8.680;2023-12-28T14:46:49;16.85;;;5.10;;
81672;SDS011;71092;41.158;-8.680;2023-12-28T14:51:41;15.48;;;6.05;;
81672;SDS011;71092;41.158;-8.680;2023-12-28T14:54:07;15.70;;;5.43;;
81672;SDS011;71092;41.158;-8.680;2023-12-28T14:56:33;16.70;;;5.97;;
81672;SDS011;71092;41.158;-8.680;2023-12-28T14:58:58;16.15;;;6.57;;
81672;SDS011;71092;41.158;-8.680;2023-12-28T15:01:24;13.13;;;6.03;;
81672;SDS011;71092;41.158;-8.680;2023-12-28T15:03:50;16.73;;;6.38;;
81672;SDS011;71092;41.158;-8.680;2023-12-28T15:06:16;11.98;;;5.20;;
81672;SDS011;71092;41.158;-8.680;2023-12-28T15:11:08;12.68;;;5.72;;
81672;SDS011;71092;41.158;-8.680;2023-12-28T15:13:36;15.38;;;5.68;;
81672;SDS011;71092;41.158;-8.680;2023-12-28T15:16:03;17.23;;;5.95;;
81672;SDS011;71092;41.158;-8.680;2023-12-28T15:18:30;13.57;;;5.82;;
81672;SDS011;71092;41.158;-8.680;2023-12-28T15:20:56;16.38;;;6.20;;
81672;SDS011;71092;41.158;-8.680;2023-12-28T15:23:22;15.63;;;6.53;;
81672;SDS011;71092;41.158;-8.680;2023-12-28T15:25:48;16.52;;;7.00;;
81672;SDS011;71092;41.158;-8.680;2023-12-28T15:28:15;14.32;;;6.70;;
81672;SDS011;71092;41.158;-8.680;2023-12-28T15:33:07;13.75;;;6.63;;
81672;SDS011;71092;41.158;-8.680;2023-12-28T15:35:36;19.27;;;6.90;;
81672;SDS011;71092;41.158;-8.680;2023-12-28T15:38:03;17.60;;;6.55;;
81672;SDS011;71092;41.158;-8.680;2023-12-28T15:40:29;14.20;;;6.18;;
81672;SDS011;71092;41.158;-8.680;2023-12-28T15:45:20;13.43;;;6.07;;
81672;SDS011;71092;41.158;-8.680;2023-12-28T15:47:47;16.70;;;5.43;;
81672;SDS011;71092;41.158;-8.680;2023-12-28T15:50:13;19.67;;;6.75;;
81672;SDS011;71092;41.158;-8.680;2023-12-28T15:52:39;20.10;;;6.55;;
81672;SDS011;71092;41.158;-8.680;2023-12-28T15:55:06;20.90;;;6.93;;
81672;SDS011;71092;41.158;-8.680;2023-12-28T15:57:32;18.02;;;7.65;;
81672;SDS011;71092;41.158;-8.680;2023-12-28T16:02:24;17.42;;;6.95;;
81672;SDS011;71092;41.158;-8.680;2023-12-28T16:04:51;20.15;;;6.60;;
81672;SDS011;71092;41.158;-8.680;2023-12-28T16:07:17;18.50;;;6.95;;
81672;SDS011;71092;41.158;-8.680;2023-12-28T16:12:12;21.05;;;7.63;;
81672;SDS011;71092;41.158;-8.680;2023-12-28T16:17:04;20.85;;;7.07;;
81672;SDS011;71092;41.158;-8.680;2023-12-28T16:19:30;20.98;;;6.80;;
81672;SDS011;71092;41.158;-8.680;2023-12-28T16:21:56;26.08;;;8.30;;
81672;SDS011;71092;41.158;-8.680;2023-12-28T16:24:22;25.42;;;8.50;;
81672;SDS011;71092;41.158;-8.680;2023-12-28T16:27:14;24.33;;;7.30;;
81672;SDS011;71092;41.158;-8.680;2023-12-28T16:29:39;18.00;;;6.28;;
81672;SDS011;71092;41.158;-8.680;2023-12-28T16:34:32;17.83;;;6.68;;
81672;SDS011;71092;41.158;-8.680;2023-12-28T16:36:58;24.45;;;7.28;;
81672;SDS011;71092;41.158;-8.680;2023-12-28T16:41:50;20.63;;;6.72;;
81672;SDS011;71092;41.158;-8.680;2023-12-28T16:46:46;26.30;;;7.70;;
81672;SDS011;71092;41.158;-8.680;2023-12-28T16:49:13;22.33;;;7.90;;
81672;SDS011;71092;41.158;-8.680;2023-12-28T16:51:40;23.05;;;7.63;;
81672;SDS011;71092;41.158;-8.680;2023-12-28T16:54:06;19.25;;;6.95;;
81672;SDS011;71092;41.158;-8.680;2023-12-28T16:58:58;23.63;;;7.95;;
81672;SDS011;71092;41.158;-8.680;2023-12-28T17:01:24;27.55;;;8.88;;
81672;SDS011;71092;41.158;-8.680;2023-12-28T17:03:51;20.17;;;7.05;;
81672;SDS011;71092;41.158;-8.680;2023-12-28T17:08:43;23.95;;;9.27;;
81672;SDS011;71092;41.158;-8.680;2023-12-28T17:11:14;25.25;;;8.35;;
81672;SDS011;71092;41.158;-8.680;2023-12-28T17:13:44;25.40;;;8.95;;
81672;SDS011;71092;41.158;-8.680;2023-12-28T17:16:11;22.00;;;8.60;;
81672;SDS011;71092;41.158;-8.680;2023-12-28T17:18:37;31.83;;;9.02;;
81672;SDS011;71092;41.158;-8.680;2023-12-28T17:21:04;25.35;;;8.38;;
81672;SDS011;71092;41.158;-8.680;2023-12-28T17:23:36;28.38;;;9.13;;
81672;SDS011;71092;41.158;-8.680;2023-12-28T17:26:03;32.13;;;9.48;;
81672;SDS011;71092;41.158;-8.680;2023-12-28T17:28:50;30.92;;;10.68;;
81672;SDS011;71092;41.158;-8.680;2023-12-28T17:31:17;21.38;;;8.45;;